Strona główna
METAR-TAF:

METAR-TAF

Lotnisko :

Kokomo Municipal Airport

Kokomo, Indiana, Stany Zjednoczone

Szerokość geograficzna: 40-32N, Długość geograficzna: 086-04W, wysokość: 253 m

Aktualna obserwacja pogody

Raport powstał 56 minut temu, godzina 06:56 UTC
Cisza
Temperatura 20°C
Wilgotność 100%
Ciśnienie 1014 hPa
Widzialność: 16.1 km
Przerywane chmury na wysokości 4800 ft
Zachmurzenie całkowite na wysokości 10000 ft

METAR: KOKK 280656Z AUTO 00000KT 10SM BKN048 OVC100 20/20 A2995 RMK AO2 SLP137 T02000200

czas: 03:52 (07:52 UTC)


TAF: brakujący

Obserwacja i prognoza pogody dla ponad 4000 lotnisk (raport METAR i TAF).

Dostępne stacje oznaczono żółtymi i czerwonymi punktami na mapie.

Najedź kursorem aby zobaczyć nazwę stacji.

Kliknij aby zobaczyć obserwacje i prognozy pogody.

Aby zmienić mapę: kliknij na zielony przycisk z czarnym krzyżykiem, aby powiększyć; na zielony przycisk z myślnikiem, aby pomniejszyć; na zielone strzałki, aby przejść do map sąsiednich.


METAR-TAF: